Fontana, California
Current Conditions -  °F | °C
As of 8:03 AM on Tuesday 21 Oct 2014 (Local Time) from KONT Reporting Station
Haze Haze  
Wind Chill: 62°   Ceiling: 700
Heat Index: 62°   Visibility: 2.5mi
Dew Point: 59°   Wind: 0mph
Humidity: 90%   Direction: NA
Pressure: 29.93"   Gusts: NA
Location:  34.1°N, 117.43°W
Report Text: KONT 211503Z 00000KT 2 1/2SM BR OVC007 17/15 A2993 RMK AO2 VIS W 1 1/2 T01670150
Loading
Personal Weather Stations






























Interactive Weather Map
Tropical Storm Tracking
New forecast layout! Learn more

10-Day Weather Forecast

Advertisements
Track Severe Weather on mobile